createdAt,value
2022-09-04T00:01:18.283Z,53.80
2022-09-04T00:03:53.649Z,53.85
2022-09-04T00:06:29.362Z,53.86
2022-09-04T00:09:09.222Z,54.36
2022-09-04T00:11:44.424Z,54.50
2022-09-04T00:14:20.147Z,54.60
2022-09-04T00:17:05.231Z,54.49
2022-09-04T00:19:40.016Z,54.87
2022-09-04T00:22:23.601Z,54.91
2022-09-04T00:24:57.901Z,55.13
2022-09-04T00:27:31.173Z,55.12
2022-09-04T00:30:11.039Z,55.56
2022-09-04T00:32:46.299Z,55.35
2022-09-04T00:35:21.588Z,55.32
2022-09-04T00:37:55.900Z,55.65
2022-09-04T00:40:31.179Z,55.61
2022-09-04T00:43:14.205Z,55.60
2022-09-04T00:45:59.410Z,55.78
2022-09-04T00:48:56.756Z,55.82
2022-09-04T00:51:30.510Z,56.11
2022-09-04T00:54:21.111Z,55.92
2022-09-04T00:57:26.144Z,56.15
2022-09-04T01:00:09.717Z,56.33
2022-09-04T01:03:13.790Z,56.16
2022-09-04T01:05:56.563Z,56.24
2022-09-04T01:08:40.525Z,56.54
2022-09-04T01:11:15.084Z,57.01
2022-09-04T01:13:48.390Z,57.22
2022-09-04T01:16:22.053Z,56.85
2022-09-04T01:19:02.203Z,56.88
2022-09-04T01:21:55.491Z,57.25
2022-09-04T01:24:54.673Z,57.37
2022-09-04T01:27:26.102Z,57.35
2022-09-04T01:30:08.642Z,57.44
2022-09-04T01:32:46.328Z,57.75
2022-09-04T01:35:24.706Z,57.65
2022-09-04T01:38:01.758Z,58.14
2022-09-04T01:40:43.184Z,58.14
2022-09-04T01:43:13.660Z,58.43
2022-09-04T01:46:14.355Z,58.50
2022-09-04T01:48:55.595Z,58.78
2022-09-04T01:51:43.321Z,59.15
2022-09-04T01:57:36.390Z,59.30
2022-09-04T02:00:23.210Z,59.40
2022-09-04T02:03:03.425Z,59.33
2022-09-04T02:05:55.555Z,59.33
2022-09-04T02:08:46.910Z,59.46
2022-09-04T02:11:30.858Z,59.47
2022-09-04T02:14:32.549Z,59.42
2022-09-04T02:17:24.346Z,59.18
2022-09-04T02:20:22.901Z,59.70
2022-09-04T02:23:11.306Z,59.64
2022-09-04T02:25:53.008Z,59.95
2022-09-04T02:28:41.024Z,59.89
2022-09-04T02:31:29.216Z,59.98
2022-09-04T02:34:10.466Z,60.05
2022-09-04T02:36:50.424Z,60.24
2022-09-04T02:39:29.500Z,60.07
2022-09-04T02:42:10.210Z,60.09
2022-09-04T02:44:48.763Z,60.27
2022-09-04T02:47:25.341Z,60.22
2022-09-04T02:50:00.796Z,60.42
2022-09-04T02:52:46.818Z,60.54
2022-09-04T02:55:27.516Z,60.77
2022-09-04T02:58:07.962Z,60.91
2022-09-04T03:00:42.086Z,60.81
2022-09-04T03:03:15.256Z,61.16
2022-09-04T03:05:56.720Z,61.01
2022-09-04T03:08:36.291Z,61.05
2022-09-04T03:11:16.829Z,61.58
2022-09-04T03:13:54.568Z,61.47
2022-09-04T03:16:30.962Z,61.54
2022-09-04T03:19:13.627Z,61.67
2022-09-04T03:21:50.644Z,62.08
2022-09-04T03:24:25.776Z,61.80
2022-09-04T03:26:56.181Z,61.80
2022-09-04T03:29:36.299Z,61.66
2022-09-04T03:32:17.008Z,61.92
2022-09-04T03:34:54.184Z,62.08
2022-09-04T03:37:36.866Z,62.27
2022-09-04T03:40:28.530Z,62.42
2022-09-04T03:43:20.152Z,62.22
2022-09-04T03:45:55.357Z,62.34
2022-09-04T03:48:36.929Z,62.53
2022-09-04T03:51:12.526Z,62.61
2022-09-04T03:53:43.537Z,63.00
2022-09-04T03:56:47.190Z,63.13
2022-09-04T03:59:24.696Z,63.48
2022-09-04T04:01:58.492Z,63.64
2022-09-04T04:04:43.761Z,63.89
2022-09-04T04:07:30.088Z,64.05
2022-09-04T04:10:13.313Z,64.34
2022-09-04T04:13:04.278Z,65.30
2022-09-04T04:16:07.795Z,65.08
2022-09-04T04:18:56.289Z,64.94
2022-09-04T04:21:37.009Z,65.11
2022-09-04T04:24:39.944Z,65.32
2022-09-04T04:27:23.595Z,65.32
2022-09-04T04:30:08.038Z,65.21
2022-09-04T04:32:58.294Z,65.28
2022-09-04T04:35:33.889Z,65.48
2022-09-04T04:38:26.277Z,65.84
2022-09-04T04:41:05.840Z,65.59
2022-09-04T04:43:46.324Z,65.80
2022-09-04T04:46:22.309Z,65.63
2022-09-04T04:49:25.658Z,65.79
2022-09-04T04:52:06.116Z,66.18
2022-09-04T04:54:51.181Z,66.04
2022-09-04T04:57:31.047Z,66.00
2022-09-04T05:00:08.129Z,66.16
2022-09-04T05:02:56.274Z,65.97
2022-09-04T05:05:57.574Z,66.00
2022-09-04T05:08:33.943Z,66.01
2022-09-04T05:11:10.106Z,66.43
2022-09-04T05:13:45.381Z,67.27
2022-09-04T05:16:23.037Z,67.31
2022-09-04T05:18:52.381Z,67.31
2022-09-04T05:21:25.341Z,67.96
2022-09-04T05:24:01.808Z,67.93
2022-09-04T05:26:36.532Z,68.17
2022-09-04T05:29:13.145Z,68.46
2022-09-04T05:31:53.347Z,68.57
2022-09-04T05:34:29.387Z,68.32
2022-09-04T05:37:06.563Z,68.76
2022-09-04T05:39:44.795Z,68.94
2022-09-04T05:42:35.162Z,69.21
2022-09-04T05:45:10.445Z,69.18
2022-09-04T05:47:46.656Z,69.40
2022-09-04T05:50:54.390Z,69.43
2022-09-04T05:53:43.636Z,69.79
2022-09-04T05:56:23.416Z,69.28
2022-09-04T05:59:11.679Z,69.22
2022-09-04T06:02:01.555Z,69.16
2022-09-04T06:04:42.747Z,68.93
2022-09-04T06:07:14.505Z,68.82
2022-09-04T06:09:59.529Z,69.11
2022-09-04T06:12:47.263Z,69.23
2022-09-04T06:15:27.394Z,68.86
2022-09-04T06:18:17.483Z,68.87
2022-09-04T06:21:00.850Z,68.60
2022-09-04T06:23:50.942Z,68.56
2022-09-04T06:26:28.473Z,68.58
2022-09-04T06:29:15.109Z,68.96
2022-09-04T06:32:00.023Z,69.01
2022-09-04T06:34:37.850Z,68.94
2022-09-04T06:37:17.017Z,69.50
2022-09-04T06:39:56.923Z,69.14
2022-09-04T06:42:35.194Z,69.28
2022-09-04T06:45:14.212Z,69.10
2022-09-04T06:47:51.957Z,68.80
2022-09-04T06:50:29.496Z,68.89
2022-09-04T06:53:07.436Z,68.77
2022-09-04T06:55:44.150Z,68.59
2022-09-04T06:58:37.168Z,68.75
2022-09-04T07:01:08.548Z,68.61
2022-09-04T07:03:45.557Z,68.61
2022-09-04T07:06:18.745Z,68.71
2022-09-04T07:09:08.223Z,68.78
2022-09-04T07:11:54.266Z,68.79
2022-09-04T07:14:44.969Z,68.35
2022-09-04T07:17:19.574Z,68.57
2022-09-04T07:20:07.804Z,68.38
2022-09-04T07:22:53.081Z,68.23
2022-09-04T07:25:26.059Z,68.08
2022-09-04T07:28:06.370Z,67.84
2022-09-04T07:30:38.907Z,67.92
2022-09-04T07:33:15.880Z,67.77
2022-09-04T07:35:55.163Z,67.63
2022-09-04T07:38:35.811Z,67.24
2022-09-04T07:41:10.352Z,67.30
2022-09-04T07:43:50.251Z,66.94
2022-09-04T07:46:29.668Z,66.50
2022-09-04T07:49:10.984Z,66.02
2022-09-04T07:51:43.859Z,65.67
2022-09-04T07:54:33.565Z,64.97
2022-09-04T07:57:23.714Z,64.58
2022-09-04T08:00:04.616Z,64.64
2022-09-04T08:03:00.886Z,64.57
2022-09-04T08:05:32.096Z,63.15
2022-09-04T08:08:28.270Z,62.30
2022-09-04T08:11:23.221Z,61.54
2022-09-04T08:14:09.636Z,60.99
2022-09-04T08:16:48.465Z,60.65
2022-09-04T08:19:24.991Z,60.08
2022-09-04T08:21:57.506Z,59.55
2022-09-04T08:25:00.604Z,59.00
2022-09-04T08:27:47.516Z,58.16
2022-09-04T08:30:22.526Z,56.93
2022-09-04T08:33:29.336Z,55.41
2022-09-04T08:36:01.089Z,52.98
2022-09-04T08:38:42.063Z,54.28
2022-09-04T08:41:58.132Z,54.76
2022-09-04T08:45:05.401Z,53.10
2022-09-04T08:47:53.006Z,52.75
2022-09-04T08:50:41.031Z,53.36
2022-09-04T08:53:52.983Z,53.52
2022-09-04T08:56:27.188Z,52.13
2022-09-04T08:59:44.624Z,51.09
2022-09-04T09:02:57.287Z,49.50
2022-09-04T09:06:25.613Z,45.88
2022-09-04T09:09:32.681Z,43.89
2022-09-04T09:12:25.808Z,44.21
2022-09-04T09:15:31.418Z,45.37
2022-09-04T09:18:09.538Z,45.37
2022-09-04T09:20:52.812Z,45.35
2022-09-04T09:23:41.368Z,43.34
2022-09-04T09:26:28.064Z,41.20
2022-09-04T09:29:41.306Z,41.76
2022-09-04T09:32:49.434Z,41.61
2022-09-04T09:35:56.882Z,40.61
2022-09-04T09:38:48.609Z,40.37
2022-09-04T09:41:44.901Z,39.90
2022-09-04T09:44:48.371Z,38.81
2022-09-04T09:47:55.108Z,39.56
2022-09-04T09:51:05.588Z,40.21
2022-09-04T09:54:06.283Z,40.21
2022-09-04T09:57:15.532Z,39.32
2022-09-04T10:00:16.830Z,38.86
2022-09-04T10:03:07.139Z,38.25
2022-09-04T10:06:10.600Z,37.03
2022-09-04T10:09:28.158Z,36.01
2022-09-04T10:12:43.103Z,35.93
2022-09-04T10:15:48.615Z,37.08
2022-09-04T10:19:00.407Z,36.61
2022-09-04T10:22:23.167Z,36.17
2022-09-04T10:25:26.461Z,34.98
2022-09-04T10:28:24.333Z,35.39
2022-09-04T10:31:37.664Z,35.36
2022-09-04T10:34:36.756Z,36.06
2022-09-04T10:37:31.968Z,36.27
2022-09-04T10:40:43.116Z,35.59
2022-09-04T10:43:45.699Z,35.92
2022-09-04T10:46:23.117Z,34.83
2022-09-04T10:49:16.619Z,35.14
2022-09-04T10:52:16.822Z,34.53
2022-09-04T10:55:18.784Z,33.57
2022-09-04T10:58:25.299Z,32.99
2022-09-04T11:01:16.271Z,32.45
2022-09-04T11:04:00.955Z,32.00
2022-09-04T11:06:54.311Z,32.70
2022-09-04T11:09:39.267Z,32.18
2022-09-04T11:12:39.803Z,29.90
2022-09-04T11:15:31.310Z,28.37
2022-09-04T11:18:34.038Z,28.17
2022-09-04T11:21:34.319Z,28.45
2022-09-04T11:24:41.445Z,27.79
2022-09-04T11:27:48.523Z,27.23
2022-09-04T11:30:28.679Z,27.78
2022-09-04T11:33:43.695Z,27.40
2022-09-04T11:36:32.165Z,28.55
2022-09-04T11:39:43.621Z,28.32
2022-09-04T11:42:41.940Z,28.64
2022-09-04T11:49:22.265Z,28.81
2022-09-04T11:52:32.021Z,29.43
2022-09-04T11:55:34.499Z,29.55
2022-09-04T11:58:25.026Z,29.81
2022-09-04T12:01:21.335Z,29.69
2022-09-04T12:04:39.671Z,30.37
2022-09-04T12:07:42.964Z,30.45
2022-09-04T12:10:31.542Z,30.03
2022-09-04T12:13:35.074Z,29.45
2022-09-04T12:16:40.048Z,28.79
2022-09-04T12:20:08.397Z,28.25
2022-09-04T12:23:27.883Z,27.73
2022-09-04T12:26:51.951Z,29.16
2022-09-04T12:30:00.242Z,30.31
2022-09-04T12:33:07.543Z,30.35
2022-09-04T12:36:26.155Z,30.73
2022-09-04T12:39:35.299Z,30.34
2022-09-04T12:42:18.031Z,30.74
2022-09-04T12:45:05.553Z,29.99
2022-09-04T12:47:48.823Z,29.65
2022-09-04T12:50:31.790Z,29.55
2022-09-04T12:53:27.627Z,28.77
2022-09-04T12:56:06.185Z,29.50
2022-09-04T12:58:47.505Z,29.95
2022-09-04T13:01:33.635Z,30.52
2022-09-04T13:04:16.621Z,30.33
2022-09-04T13:07:20.714Z,30.52
2022-09-04T13:10:00.819Z,31.48
2022-09-04T13:12:57.848Z,32.44
2022-09-04T13:15:46.161Z,32.46
2022-09-04T13:18:36.955Z,32.82
2022-09-04T13:21:25.767Z,33.10
2022-09-04T13:24:20.438Z,32.85
2022-09-04T13:27:21.348Z,32.50
2022-09-04T13:30:03.702Z,33.01
2022-09-04T13:32:48.035Z,33.19
2022-09-04T13:35:36.717Z,33.30
2022-09-04T13:38:28.212Z,32.92
2022-09-04T13:41:15.639Z,33.22
2022-09-04T13:44:00.527Z,32.71
2022-09-04T13:46:41.282Z,32.47
2022-09-04T13:49:29.262Z,32.30
2022-09-04T13:52:15.617Z,31.20
2022-09-04T13:55:03.783Z,29.73
2022-09-04T13:57:45.879Z,29.43
2022-09-04T14:00:17.620Z,29.47
2022-09-04T14:02:47.019Z,29.78
2022-09-04T14:05:32.775Z,29.99
2022-09-04T14:08:13.058Z,30.37
2022-09-04T14:11:26.794Z,29.82
2022-09-04T14:14:35.195Z,30.08
2022-09-04T14:17:06.898Z,30.06
2022-09-04T14:19:46.944Z,30.49
2022-09-04T14:22:25.860Z,30.62
2022-09-04T14:25:06.431Z,30.81
2022-09-04T14:27:45.741Z,31.26
2022-09-04T14:30:33.605Z,31.58
2022-09-04T14:33:21.850Z,32.08
2022-09-04T14:36:02.041Z,32.31
2022-09-04T14:38:48.791Z,32.63
2022-09-04T14:41:36.272Z,33.21
2022-09-04T14:44:23.094Z,33.32
2022-09-04T14:47:03.388Z,33.53
2022-09-04T14:49:39.274Z,33.82
2022-09-04T14:52:37.855Z,34.13
2022-09-04T14:55:17.635Z,34.49
2022-09-04T14:57:58.812Z,34.50
2022-09-04T15:00:29.492Z,34.65
2022-09-04T15:03:04.706Z,34.58
2022-09-04T15:05:36.112Z,34.63
2022-09-04T15:08:07.276Z,34.86
2022-09-04T15:10:47.115Z,35.00
2022-09-04T15:13:50.249Z,35.07
2022-09-04T15:16:28.553Z,35.25
2022-09-04T15:19:04.628Z,35.18
2022-09-04T15:21:42.457Z,34.62
2022-09-04T15:24:26.546Z,34.37
2022-09-04T15:27:12.335Z,34.29
2022-09-04T15:30:02.732Z,34.16
2022-09-04T15:32:36.950Z,33.72
2022-09-04T15:35:14.445Z,33.07
2022-09-04T15:37:48.368Z,32.89
2022-09-04T15:40:27.198Z,32.86
2022-09-04T15:43:05.787Z,33.07
2022-09-04T15:45:58.818Z,33.57
2022-09-04T15:48:36.129Z,33.86
2022-09-04T15:51:18.745Z,34.57
2022-09-04T15:54:09.714Z,35.01
2022-09-04T15:56:47.377Z,35.18
2022-09-04T15:59:24.874Z,35.53
2022-09-04T16:02:10.458Z,35.67
2022-09-04T16:04:45.825Z,35.89
2022-09-04T16:07:36.368Z,35.93
2022-09-04T16:10:13.585Z,36.22
2022-09-04T16:12:55.855Z,36.50
2022-09-04T16:15:30.246Z,36.46
2022-09-04T16:18:13.898Z,36.39
2022-09-04T16:20:50.081Z,36.08
2022-09-04T16:23:30.642Z,36.13
2022-09-04T16:26:20.905Z,36.43
2022-09-04T16:28:55.416Z,36.66
2022-09-04T16:31:36.580Z,36.76
2022-09-04T16:34:20.590Z,36.99
2022-09-04T16:36:51.830Z,37.79
2022-09-04T16:39:46.385Z,38.09
2022-09-04T16:42:22.986Z,38.32
2022-09-04T16:45:13.596Z,38.69
2022-09-04T16:47:54.106Z,38.88
2022-09-04T16:50:29.634Z,39.05
2022-09-04T16:53:31.051Z,39.17
2022-09-04T16:56:07.126Z,39.38
2022-09-04T16:58:46.724Z,39.41
2022-09-04T17:01:20.131Z,39.69
2022-09-04T17:04:27.237Z,39.88
2022-09-04T17:07:08.784Z,39.91
2022-09-04T17:09:51.036Z,40.07
2022-09-04T17:12:34.996Z,40.11
2022-09-04T17:15:23.410Z,40.53
2022-09-04T17:17:58.651Z,40.61
2022-09-04T17:20:51.676Z,40.72
2022-09-04T17:28:57.133Z,40.88
2022-09-04T17:29:09.933Z,41.58
2022-09-04T17:29:33.692Z,41.70
2022-09-04T17:33:58.491Z,41.49
2022-09-04T17:40:36.758Z,41.79
2022-09-04T17:40:39.644Z,41.66
2022-09-04T17:41:37.996Z,42.08
2022-09-04T17:44:29.301Z,42.10
2022-09-04T17:47:12.112Z,42.25
2022-09-04T17:49:47.331Z,42.32
2022-09-04T17:52:30.384Z,42.43
2022-09-04T17:55:05.797Z,42.62
2022-09-04T17:57:49.605Z,42.80
2022-09-04T18:00:25.157Z,42.91
2022-09-04T18:02:59.089Z,43.01
2022-09-04T18:05:30.131Z,43.46
2022-09-04T18:08:09.337Z,43.62
2022-09-04T18:10:52.062Z,43.68
2022-09-04T18:13:38.153Z,43.75
2022-09-04T18:16:53.132Z,43.80
2022-09-04T18:19:36.964Z,44.17
2022-09-04T18:22:26.882Z,44.14
2022-09-04T18:25:14.328Z,44.22
2022-09-04T18:28:11.452Z,44.49
2022-09-04T18:37:05.292Z,44.72
2022-09-04T18:37:22.456Z,44.94
2022-09-04T18:37:23.391Z,44.77
2022-09-04T18:39:37.753Z,45.21
2022-09-04T18:50:23.557Z,45.45
2022-09-04T18:50:30.652Z,45.66
2022-09-04T18:50:35.117Z,45.84
2022-09-04T18:51:19.376Z,45.61
2022-09-04T18:53:53.125Z,46.01
2022-09-04T18:56:26.419Z,45.85
2022-09-04T18:58:59.420Z,45.82
2022-09-04T19:01:34.629Z,45.88
2022-09-04T19:04:28.446Z,46.15
2022-09-04T19:07:07.410Z,46.32
2022-09-04T19:09:55.585Z,46.41
2022-09-04T19:12:35.834Z,46.56
2022-09-04T19:15:36.883Z,46.38
2022-09-04T19:18:13.257Z,46.82
2022-09-04T19:20:46.982Z,46.87
2022-09-04T19:23:20.963Z,46.76
2022-09-04T19:25:51.565Z,46.77
2022-09-04T19:28:27.266Z,46.91
2022-09-04T19:31:00.256Z,46.89
2022-09-04T19:33:38.611Z,46.80
2022-09-04T19:36:12.904Z,46.98
2022-09-04T19:43:18.204Z,47.13
2022-09-04T19:46:03.344Z,47.12
2022-09-04T19:46:25.703Z,47.03
2022-09-04T19:47:30.279Z,47.14
2022-09-04T19:53:19.281Z,47.11
2022-09-04T19:53:30.344Z,47.30
2022-09-04T19:55:55.119Z,47.52
2022-09-04T19:58:28.102Z,47.64
2022-09-04T20:00:58.650Z,47.74
2022-09-04T20:03:32.355Z,47.51
2022-09-04T20:06:20.910Z,47.64
2022-09-04T20:08:57.315Z,48.09
2022-09-04T20:11:35.280Z,48.02
2022-09-04T20:14:17.060Z,48.25
2022-09-04T20:16:54.506Z,48.34
2022-09-04T20:19:28.586Z,48.13
2022-09-04T20:22:03.186Z,47.98
2022-09-04T20:24:39.145Z,48.28
2022-09-04T20:27:15.321Z,47.95
2022-09-04T20:29:54.842Z,47.82
2022-09-04T20:32:27.343Z,48.14
2022-09-04T20:35:13.052Z,48.01
2022-09-04T20:37:48.558Z,47.92
2022-09-04T20:40:26.921Z,47.84
2022-09-04T20:43:10.377Z,48.04
2022-09-04T20:48:49.732Z,48.04
2022-09-04T20:52:42.283Z,48.36
2022-09-04T20:53:05.037Z,48.48
2022-09-04T20:54:41.206Z,48.57
2022-09-04T21:01:35.142Z,48.60
2022-09-04T21:03:10.583Z,48.75
2022-09-04T21:03:19.145Z,48.83
2022-09-04T21:06:06.862Z,48.89
2022-09-04T21:08:44.025Z,49.11
2022-09-04T21:11:40.675Z,49.03
2022-09-04T21:14:08.414Z,49.33
2022-09-04T21:16:49.594Z,48.93
2022-09-04T21:19:38.805Z,49.13
2022-09-04T21:22:24.473Z,49.04
2022-09-04T21:25:18.364Z,49.16
2022-09-04T21:28:08.919Z,49.40
2022-09-04T21:30:49.626Z,49.26
2022-09-04T21:33:36.745Z,49.35
2022-09-04T21:36:26.896Z,48.95
2022-09-04T21:39:19.285Z,49.03
2022-09-04T21:42:04.370Z,48.91
2022-09-04T21:45:09.640Z,49.00
2022-09-04T21:47:51.850Z,48.94
2022-09-04T21:50:43.435Z,48.86
2022-09-04T21:53:40.309Z,48.92
2022-09-04T21:58:11.576Z,48.90
2022-09-04T22:02:37.955Z,48.84
2022-09-04T22:02:42.417Z,48.69
2022-09-04T22:05:17.877Z,48.70
2022-09-04T22:12:41.391Z,48.51
2022-09-04T22:13:41.887Z,48.55
2022-09-04T22:13:50.641Z,48.50
2022-09-04T22:16:41.884Z,48.51
2022-09-04T22:19:43.008Z,48.46
2022-09-04T22:22:28.319Z,48.59
2022-09-04T22:25:46.169Z,48.56
2022-09-04T22:28:51.823Z,48.75
2022-09-04T22:31:39.782Z,48.71
2022-09-04T22:34:26.985Z,48.55
2022-09-04T22:37:12.896Z,48.69
2022-09-04T22:39:51.188Z,48.78
2022-09-04T22:42:44.961Z,48.73
2022-09-04T22:45:33.991Z,48.63
2022-09-04T22:48:18.381Z,48.74
2022-09-04T22:50:53.222Z,48.97
2022-09-04T22:53:45.758Z,48.78
2022-09-04T22:56:24.489Z,48.86
2022-09-04T22:59:26.976Z,48.85
2022-09-04T23:02:14.057Z,48.91
2022-09-04T23:04:56.932Z,48.95
2022-09-04T23:13:43.216Z,48.89
2022-09-04T23:13:57.504Z,48.89
2022-09-04T23:14:07.584Z,48.92
2022-09-04T23:16:57.387Z,49.05
2022-09-04T23:26:36.127Z,49.08
2022-09-04T23:26:42.533Z,49.08
2022-09-04T23:26:43.222Z,49.23
2022-09-04T23:29:32.379Z,49.27
2022-09-04T23:32:21.788Z,49.25
2022-09-04T23:35:27.631Z,49.38
2022-09-04T23:38:36.318Z,49.55
2022-09-04T23:41:52.603Z,49.99
2022-09-04T23:45:12.205Z,49.88
2022-09-04T23:48:14.777Z,49.85
2022-09-04T23:51:06.575Z,50.02
2022-09-04T23:54:02.546Z,49.98
2022-09-04T23:57:03.315Z,50.06
